Atlantic - Newfoundland: Past 24 Hour Conditions

 

St. Lawrence

09:30 PM NDT 20 August 2014
This table is a summary of hourly weather conditions for the past 24 hours.
Date / Time
(NDT)
Wind(knots) Conditions Visibility(km) Pressure(kPa) Air tempC) Relative humidity(%) Dew pointC)
20 August 2014
21:30 WSW 13 N/A N/A 101.0 17 92 16
20:30 WSW 12 gust 17 N/A N/A 100.9 17 91 16
19:30 WSW 14 gust 19 N/A N/A 100.9 18 89 16
18:30 SW 19 gust 27 N/A N/A 100.8 18 87 16
17:30 WSW 18 gust 26 N/A N/A 100.8 18 90 17
16:30 SW 21 gust 28 N/A N/A 100.8 19 82 16
15:30 SW 19 N/A N/A 100.8 19 83 16
14:30 SW 15 gust 20 N/A N/A 100.8 19 86 17
13:30 SW 14 gust 21 N/A N/A 100.8 19 89 17
12:30 WSW 18 gust 28 N/A N/A 100.8 18 89 16
11:30 SW 12 gust 19 N/A N/A 100.8 19 93 17
10:30 WSW 16 N/A N/A 100.8 20 86 17
9:30 SW 11 gust 18 N/A N/A 100.8 17 94 16
8:30 SW 23 gust 29 N/A N/A 100.8 17 93 15
7:30 SSW 13 gust 19 N/A N/A 100.8 17 93 16
6:30 SW 12 gust 17 N/A N/A 100.8 17 93 16
5:30 SW 11 gust 16 N/A N/A 100.7 17 91 15
4:30 SW 9 N/A N/A 100.7 17 92 16
3:30 SW 9 N/A N/A 100.7 17 94 16
2:30 SW 9 N/A N/A 100.7 17 94 16
1:30 SSW 8 N/A N/A 100.7 17 93 16
0:30 SSW 10 N/A N/A 100.7 18 94 17
19 August 2014
23:30 SSW 7 N/A N/A 100.7 17 92 16
22:30 SSW 9 N/A N/A 100.6 17 92 16
21:30 SW 8 N/A N/A 100.6 17 90 16
 
Map of Atlantic - Newfoundland marine weather areas Southwestern Grand Banks - 44138 Banquereau - 44139 Tail of the Bank - 44140 Nickerson Bank - 44251 Northeast Burgeo Bank - 44255 Blanc-Sablon Airport Cap Whittle Chevery Natashquan Airport Heath Point Miscou Island Grand Étang Ingonish Beach North Mountain St.Paul Island J.A. Douglas McCurdy Sydney Airport Charlottetown Airport East Point North Cape Argentia Bonavista Burgeo Cape Race Corner Brook Daniel's Harbour Englee Ferolle Point La Scie Port aux Basques Rocky Harbour Sagona Island St. Anthony Airport St. John's Int'l Airport St. Lawrence Stephenville Airport Twillingate Winterland Wreckhouse Cartwright Airport Mary's Harbour Grates Cove Pool's Island Marticot Island Long Pond Îles de la Madeleine Airport
Legend: buoyBuoy land stationLand Station